Time,TemperatureF,DewpointF,PressureIn,WindDirection,WindDirectionDegrees,WindSpeedMPH,WindSpeedGustMPH,Humidity,HourlyPrecipIn,Conditions,Clouds,dailyrainin,SoftwareType,DateUTC
2013-01-23 06:59:00,12.4,1.7,29.53,West,270,1.6,1.6,62,0.00,,,0.00,WUHU21623XXSP,2013-01-23 11:59:00,
2013-01-23 07:00:00,12.4,1.7,29.53,West,270,1.6,1.6,62,0.00,,,0.00,WUHU21623XXSP,2013-01-23 12:00:00,
2013-01-23 07:05:00,12.6,1.9,29.53,West,270,0.0,1.6,62,0.00,,,0.00,WUHU21623XXSP,2013-01-23 12:05:00,
2013-01-23 07:10:00,12.6,1.9,29.53,West,270,2.2,2.2,62,0.00,,,0.00,WUHU21623XXSP,2013-01-23 12:10:00,
2013-01-23 07:15:00,12.6,1.9,29.53,West,270,2.2,2.2,62,0.00,,,0.00,WUHU21623XXSP,2013-01-23 12:15:00,
2013-01-23 07:20:00,12.6,1.9,29.53,West,270,2.2,2.2,62,0.00,,,0.00,WUHU21623XXSP,2013-01-23 12:20:00,
2013-01-23 07:25:00,12.6,1.9,29.54,West,270,2.2,2.2,62,0.00,,,0.00,WUHU21623XXSP,2013-01-23 12:25:00,
2013-01-23 07:30:00,12.6,1.9,29.53,West,270,2.2,2.2,62,0.00,,,0.00,WUHU21623XXSP,2013-01-23 12:30:00,
2013-01-23 07:35:00,12.6,1.9,29.53,West,270,2.2,2.2,62,0.00,,,0.00,WUHU21623XXSP,2013-01-23 12:35:00,
2013-01-23 08:57:00,13.8,2.8,29.52,West,270,0.0,0.0,61,0.00,,,0.00,WUHU21623XXSP,2013-01-23 13:57:00,
2013-01-23 09:02:00,13.8,2.8,29.52,West,270,0.0,0.0,61,0.00,,,0.00,WUHU21623XXSP,2013-01-23 14:02:00,
2013-01-23 09:07:00,13.8,2.8,29.52,West,270,0.0,0.0,61,0.00,,,0.00,WUHU21623XXSP,2013-01-23 14:07:00,
2013-01-23 09:12:00,13.8,2.8,29.52,West,270,0.0,0.0,61,0.00,,,0.00,WUHU21623XXSP,2013-01-23 14:12:00,
2013-01-23 12:05:00,18.1,4.7,29.48,WNW,292,0.0,0.0,55,0.00,,,0.00,WUHU21623XXSP,2013-01-23 17:05:00,
2013-01-23 12:10:00,18.5,4.7,29.48,West,270,4.3,4.3,55,0.00,,,0.00,WUHU21623XXSP,2013-01-23 17:10:00,
2013-01-23 12:15:00,18.5,5.3,29.47,West,270,3.6,4.3,56,0.00,,,0.00,WUHU21623XXSP,2013-01-23 17:15:00,
2013-01-23 12:20:00,18.7,5.5,29.47,NW,315,4.7,4.7,56,0.00,,,0.00,WUHU21623XXSP,2013-01-23 17:20:00,
2013-01-23 12:25:00,18.5,5.5,29.47,South,180,2.9,4.7,56,0.00,,,0.00,WUHU21623XXSP,2013-01-23 17:25:00,
2013-01-23 12:30:00,18.7,5.9,29.46,West,270,4.0,4.0,57,0.00,,,0.00,WUHU21623XXSP,2013-01-23 17:30:00,
2013-01-23 12:35:00,18.7,5.9,29.46,West,270,4.3,4.3,57,0.00,,,0.00,WUHU21623XXSP,2013-01-23 17:35:00,
2013-01-23 12:40:00,18.7,5.9,29.46,West,270,4.3,4.3,57,0.00,,,0.00,WUHU21623XXSP,2013-01-23 17:40:00,
2013-01-23 12:45:00,18.7,5.9,29.46,West,270,4.3,4.3,57,0.00,,,0.00,WUHU21623XXSP,2013-01-23 17:45:00,
2013-01-23 12:50:00,19.2,6.0,29.45,WSW,247,6.3,6.3,56,0.00,,,0.00,WUHU21623XXSP,2013-01-23 17:50:00,
2013-01-23 12:55:00,19.2,5.6,29.45,WNW,292,7.4,7.4,55,0.00,,,0.00,WUHU21623XXSP,2013-01-23 17:55:00,
2013-01-23 13:00:00,19.2,5.6,29.45,SW,225,4.7,7.4,55,0.00,,,0.00,WUHU21623XXSP,2013-01-23 18:00:00,
2013-01-23 13:05:00,19.2,5.6,29.44,WSW,247,2.9,7.4,55,0.00,,,0.00,WUHU21623XXSP,2013-01-23 18:05:00,
2013-01-23 13:11:00,19.2,4.8,29.44,West,270,5.4,5.4,55,0.00,,,0.00,WUHU21623XXSP,2013-01-23 18:11:00,
2013-01-23 13:16:00,19.2,4.8,29.44,West,270,7.4,7.4,53,0.00,,,0.00,WUHU21623XXSP,2013-01-23 18:16:00,
2013-01-23 13:21:00,19.2,4.8,29.44,West,270,7.4,7.4,53,0.00,,,0.00,WUHU21623XXSP,2013-01-23 18:21:00,
2013-01-23 13:26:00,19.2,5.2,29.43,WNW,292,3.1,7.4,53,0.00,,,0.00,WUHU21623XXSP,2013-01-23 18:26:00,
2013-01-23 13:31:00,19.2,4.8,29.43,West,270,4.7,7.4,53,0.00,,,0.00,WUHU21623XXSP,2013-01-23 18:31:00,
2013-01-23 13:36:00,19.6,5.1,29.43,WSW,247,6.5,9.4,53,0.00,,,0.00,WUHU21623XXSP,2013-01-23 18:36:00,
2013-01-23 13:41:00,19.6,5.1,29.42,West,270,2.9,9.4,53,0.00,,,0.00,WUHU21623XXSP,2013-01-23 18:41:00,
2013-01-23 13:46:00,19.6,5.1,29.42,WNW,292,1.3,6.5,53,0.00,,,0.00,WUHU21623XXSP,2013-01-23 18:46:00,
2013-01-23 13:51:00,19.4,4.9,29.41,West,270,2.7,6.3,53,0.00,,,0.00,WUHU21623XXSP,2013-01-23 18:51:00,
2013-01-23 13:56:00,19.2,4.8,29.41,WSW,247,4.7,6.3,53,0.00,,,0.00,WUHU21623XXSP,2013-01-23 18:56:00,
2013-01-23 14:01:00,19.4,4.9,29.41,WSW,247,4.7,6.3,53,0.00,,,0.00,WUHU21623XXSP,2013-01-23 19:01:00,
2013-01-23 14:06:00,19.4,5.3,29.41,WSW,247,4.7,4.7,54,0.00,,,0.00,WUHU21623XXSP,2013-01-23 19:06:00,
2013-01-23 14:11:00,19.6,5.5,29.40,SSE,157,0.0,4.7,54,0.00,,,0.00,WUHU21623XXSP,2013-01-23 19:11:00,
2013-01-23 14:16:00,19.4,5.7,29.40,WSW,247,4.3,4.3,55,0.00,,,0.00,WUHU21623XXSP,2013-01-23 19:16:00,
2013-01-23 14:21:00,19.6,5.9,29.40,WSW,247,4.7,4.7,55,0.00,,,0.00,WUHU21623XXSP,2013-01-23 19:21:00,
2013-01-23 14:26:00,19.4,6.1,29.40,SSW,202,2.5,5.1,56,0.00,,,0.00,WUHU21623XXSP,2013-01-23 19:26:00,
2013-01-23 14:31:00,19.6,6.3,29.39,SSW,202,4.3,5.1,56,0.00,,,0.00,WUHU21623XXSP,2013-01-23 19:31:00,
2013-01-23 14:36:00,19.6,6.3,29.39,SW,225,3.8,4.3,56,0.00,,,0.00,WUHU21623XXSP,2013-01-23 19:36:00,
2013-01-23 14:41:00,19.6,6.3,29.39,SW,225,2.9,6.7,56,0.00,,,0.00,WUHU21623XXSP,2013-01-23 19:41:00,
2013-01-23 14:46:00,19.6,6.7,29.39,West,270,2.0,6.7,57,0.00,,,0.00,WUHU21623XXSP,2013-01-23 19:46:00,
2013-01-23 14:51:00,19.8,6.9,29.39,WSW,247,2.7,3.8,57,0.00,,,0.00,WUHU21623XXSP,2013-01-23 19:51:00,
2013-01-23 14:56:00,19.8,6.9,29.38,West,270,6.0,6.0,57,0.00,,,0.00,WUHU21623XXSP,2013-01-23 19:56:00,
2013-01-23 15:01:00,19.8,6.9,29.39,West,270,5.1,6.0,57,0.00,,,0.00,WUHU21623XXSP,2013-01-23 20:01:00,
2013-01-23 15:06:00,19.8,6.9,29.39,West,270,4.3,5.1,57,0.00,,,0.00,WUHU21623XXSP,2013-01-23 20:06:00,
2013-01-23 15:11:00,19.6,6.7,29.39,West,270,2.7,4.3,57,0.00,,,0.00,WUHU21623XXSP,2013-01-23 20:11:00,
2013-01-23 15:16:00,19.8,6.5,29.39,WNW,292,4.0,4.9,56,0.00,,,0.00,WUHU21623XXSP,2013-01-23 20:16:00,
2013-01-23 15:21:00,19.8,6.5,29.39,West,270,2.2,7.8,56,0.00,,,0.00,WUHU21623XXSP,2013-01-23 20:21:00,
2013-01-23 15:26:00,19.9,6.6,29.38,West,270,3.8,7.8,56,0.00,,,0.00,WUHU21623XXSP,2013-01-23 20:26:00,
2013-01-23 15:31:00,19.8,6.5,29.38,WSW,247,6.0,6.0,56,0.00,,,0.00,WUHU21623XXSP,2013-01-23 20:31:00,
2013-01-23 15:36:00,19.9,6.6,29.37,West,270,1.8,6.0,56,0.00,,,0.00,WUHU21623XXSP,2013-01-23 20:36:00,
2013-01-23 15:41:00,19.8,6.5,29.38,West,270,2.2,6.0,56,0.00,,,0.00,WUHU21623XXSP,2013-01-23 20:41:00,
2013-01-23 15:46:00,19.8,6.9,29.38,WNW,292,0.0,4.7,57,0.00,,,0.00,WUHU21623XXSP,2013-01-23 20:46:00,
2013-01-23 15:51:00,19.8,7.3,29.38,WSW,247,2.9,9.4,58,0.00,,,0.00,WUHU21623XXSP,2013-01-23 20:51:00,
2013-01-23 15:56:00,19.8,7.6,29.38,SW,225,4.5,9.4,59,0.00,,,0.00,WUHU21623XXSP,2013-01-23 20:56:00,
2013-01-23 16:01:00,19.6,7.5,29.38,SW,225,0.0,4.5,59,0.00,,,0.00,WUHU21623XXSP,2013-01-23 21:01:00,
2013-01-23 16:06:00,19.4,8.0,29.38,WNW,292,1.6,4.5,61,0.00,,,0.00,WUHU21623XXSP,2013-01-23 21:06:00,
2013-01-23 16:11:00,19.2,8.2,29.38,WSW,247,2.9,3.1,62,0.00,,,0.00,WUHU21623XXSP,2013-01-23 21:11:00,
2013-01-23 16:16:00,19.2,8.6,29.38,WSW,247,3.6,3.6,63,0.00,,,0.00,WUHU21623XXSP,2013-01-23 21:16:00,
2013-01-23 16:21:00,19.0,8.7,29.38,WSW,247,1.6,3.6,64,0.00,,,0.00,WUHU21623XXSP,2013-01-23 21:21:00,
2013-01-23 16:26:00,19.0,8.9,29.37,West,270,3.6,3.6,65,0.00,,,0.00,WUHU21623XXSP,2013-01-23 21:26:00,
2013-01-23 16:31:00,18.9,9.3,29.37,WSW,247,2.0,3.6,66,0.00,,,0.00,WUHU21623XXSP,2013-01-23 21:31:00,
2013-01-23 16:36:00,18.9,9.4,29.37,WSW,247,2.0,3.6,66,0.00,,,0.00,WUHU21623XXSP,2013-01-23 21:36:00,
2013-01-23 16:41:00,19.0,9.4,29.37,West,270,1.6,2.0,66,0.00,,,0.00,WUHU21623XXSP,2013-01-23 21:41:00,
2013-01-23 16:46:00,18.9,9.3,29.37,West,270,0.0,2.5,66,0.00,,,0.00,WUHU21623XXSP,2013-01-23 21:46:00,
2013-01-23 16:51:00,18.7,9.4,29.37,West,270,0.0,2.9,67,0.00,,,0.00,WUHU21623XXSP,2013-01-23 21:51:00,
2013-01-23 16:56:00,18.9,9.4,29.37,WSW,247,1.3,2.9,67,0.00,,,0.00,WUHU21623XXSP,2013-01-23 21:56:00,
2013-01-23 17:01:00,18.9,9.9,29.38,West,270,2.2,2.5,68,0.00,,,0.00,WUHU21623XXSP,2013-01-23 22:01:00,
2013-01-23 17:06:00,18.9,10.1,29.37,West,270,0.0,2.5,68,0.00,,,0.00,WUHU21623XXSP,2013-01-23 22:06:00,
2013-01-23 17:11:00,19.0,10.1,29.37,West,270,0.0,0.0,68,0.00,,,0.00,WUHU21623XXSP,2013-01-23 22:11:00,
2013-01-23 17:16:00,18.9,10.3,29.37,WSW,247,0.0,5.8,69,0.00,,,0.00,WUHU21623XXSP,2013-01-23 22:16:00,
2013-01-23 17:21:00,18.9,10.3,29.37,WSW,247,0.0,5.8,69,0.00,,,0.00,WUHU21623XXSP,2013-01-23 22:21:00,
2013-01-23 17:26:00,18.9,10.3,29.36,West,270,0.0,0.0,69,0.00,,,0.00,WUHU21623XXSP,2013-01-23 22:26:00,
2013-01-23 17:31:00,18.7,9.8,29.36,West,270,0.0,0.0,68,0.00,,,0.00,WUHU21623XXSP,2013-01-23 22:31:00,
2013-01-23 17:36:00,18.9,10.3,29.36,West,270,0.0,0.0,69,0.00,,,0.00,WUHU21623XXSP,2013-01-23 22:36:00,
2013-01-23 17:41:00,18.9,10.3,29.36,West,270,0.0,0.0,69,0.00,,,0.00,WUHU21623XXSP,2013-01-23 22:41:00,
2013-01-23 17:46:00,19.0,10.5,29.36,West,270,0.0,0.0,69,0.00,,,0.00,WUHU21623XXSP,2013-01-23 22:46:00,
2013-01-23 17:51:00,19.0,10.5,29.35,West,270,0.0,0.0,69,0.00,,,0.00,WUHU21623XXSP,2013-01-23 22:51:00,
2013-01-23 17:56:00,19.2,10.6,29.35,SW,225,0.0,0.0,69,0.00,,,0.00,WUHU21623XXSP,2013-01-23 22:56:00,
2013-01-23 18:01:00,19.2,10.6,29.36,West,270,0.0,0.0,69,0.00,,,0.00,WUHU21623XXSP,2013-01-23 23:01:00,
2013-01-23 18:06:00,19.2,10.6,29.35,West,270,0.0,0.0,69,0.00,,,0.00,WUHU21623XXSP,2013-01-23 23:06:00,
2013-01-23 18:11:00,19.2,10.6,29.35,NW,315,0.0,0.0,69,0.00,,,0.00,WUHU21623XXSP,2013-01-23 23:11:00,
2013-01-23 18:16:00,19.2,10.6,29.35,West,270,0.0,0.0,69,0.00,,,0.00,WUHU21623XXSP,2013-01-23 23:16:00,
2013-01-23 18:21:00,19.2,10.6,29.35,West,270,0.0,0.0,69,0.00,,,0.00,WUHU21623XXSP,2013-01-23 23:21:00,
2013-01-23 18:26:00,19.2,10.6,29.35,WSW,247,0.0,0.0,69,0.00,,,0.00,WUHU21623XXSP,2013-01-23 23:26:00,
2013-01-23 18:31:00,19.4,10.8,29.35,West,270,0.0,0.0,69,0.00,,,0.00,WUHU21623XXSP,2013-01-23 23:31:00,
2013-01-23 18:36:00,19.4,10.8,29.35,West,270,0.0,0.0,69,0.00,,,0.00,WUHU21623XXSP,2013-01-23 23:36:00,
2013-01-23 18:41:00,19.6,11.0,29.35,West,270,0.0,0.0,69,0.00,,,0.00,WUHU21623XXSP,2013-01-23 23:41:00,
2013-01-23 18:47:00,19.8,11.1,29.35,WNW,292,0.0,0.0,69,0.00,,,0.00,WUHU21623XXSP,2013-01-23 23:47:00,
2013-01-23 18:51:00,19.6,11.0,29.35,West,270,0.0,0.0,69,0.00,,,0.00,WUHU21623XXSP,2013-01-23 23:51:00,
2013-01-23 18:57:00,19.6,11.0,29.35,SSW,202,0.0,0.0,69,0.00,,,0.00,WUHU21623XXSP,2013-01-23 23:57:00,
2013-01-23 19:02:00,19.8,11.1,29.35,SW,225,0.0,0.0,69,0.00,,,0.00,WUHU21623XXSP,2013-01-24 00:02:00,
2013-01-23 19:07:00,19.9,11.3,29.34,South,180,0.0,0.0,69,0.00,,,0.00,WUHU21623XXSP,2013-01-24 00:07:00,
2013-01-23 19:12:00,19.9,11.3,29.34,SSE,157,0.0,0.0,69,0.00,,,0.00,WUHU21623XXSP,2013-01-24 00:12:00,
2013-01-23 19:17:00,20.1,11.5,29.34,SW,225,0.0,0.0,69,0.00,,,0.00,WUHU21623XXSP,2013-01-24 00:17:00,
2013-01-23 19:22:00,20.1,11.5,29.34,WSW,247,0.0,0.0,69,0.00,,,0.00,WUHU21623XXSP,2013-01-24 00:22:00,
2013-01-23 19:27:00,20.3,11.7,29.34,South,180,0.0,0.0,69,0.00,,,0.00,WUHU21623XXSP,2013-01-24 00:27:00,
2013-01-23 19:32:00,20.3,11.7,29.34,SSW,202,0.0,0.0,69,0.00,,,0.00,WUHU21623XXSP,2013-01-24 00:32:00,
2013-01-23 19:37:00,20.3,11.7,29.35,South,180,0.0,0.0,69,0.00,,,0.00,WUHU21623XXSP,2013-01-24 00:37:00,
2013-01-23 19:42:00,20.5,11.9,29.34,South,180,0.0,0.0,69,0.00,,,0.00,WUHU21623XXSP,2013-01-24 00:42:00,
2013-01-23 19:47:00,20.5,11.9,29.34,SSW,202,0.0,0.0,69,0.00,,,0.00,WUHU21623XXSP,2013-01-24 00:47:00,
2013-01-23 19:52:00,20.5,11.9,29.34,SW,225,0.0,0.0,69,0.00,,,0.00,WUHU21623XXSP,2013-01-24 00:52:00,
2013-01-23 19:57:00,20.5,11.9,29.34,South,180,0.0,0.0,69,0.00,,,0.00,WUHU21623XXSP,2013-01-24 00:57:00,
2013-01-23 20:02:00,20.5,11.9,29.34,SW,225,0.0,0.0,69,0.00,,,0.00,WUHU21623XXSP,2013-01-24 01:02:00,
2013-01-23 20:07:00,20.5,11.9,29.34,SSW,202,0.0,0.0,69,0.00,,,0.00,WUHU21623XXSP,2013-01-24 01:07:00,
2013-01-23 20:12:00,20.5,12.2,29.34,SW,225,0.0,0.0,70,0.00,,,0.00,WUHU21623XXSP,2013-01-24 01:12:00,
2013-01-23 20:17:00,20.5,11.9,29.33,WSW,247,0.0,0.0,69,0.00,,,0.00,WUHU21623XXSP,2013-01-24 01:17:00,
2013-01-23 20:22:00,20.5,11.9,29.33,West,270,0.0,0.0,69,0.00,,,0.00,WUHU21623XXSP,2013-01-24 01:22:00,
2013-01-23 20:27:00,20.3,11.7,29.34,SW,225,0.0,0.0,69,0.00,,,0.00,WUHU21623XXSP,2013-01-24 01:27:00,
2013-01-23 20:32:00,20.3,12.0,29.34,SW,225,0.0,0.0,70,0.00,,,0.00,WUHU21623XXSP,2013-01-24 01:32:00,
2013-01-23 20:37:00,20.5,12.2,29.33,SSW,202,0.0,0.0,70,0.00,,,0.00,WUHU21623XXSP,2013-01-24 01:37:00,
2013-01-23 20:42:00,20.5,12.2,29.33,West,270,0.0,0.0,70,0.00,,,0.00,WUHU21623XXSP,2013-01-24 01:42:00,
2013-01-23 20:47:00,20.3,12.2,29.33,West,270,0.0,0.0,70,0.00,,,0.00,WUHU21623XXSP,2013-01-24 01:47:00,
2013-01-23 20:52:00,20.5,12.2,29.33,SW,225,0.0,0.0,70,0.00,,,0.00,WUHU21623XXSP,2013-01-24 01:52:00,
2013-01-23 20:57:00,20.5,12.2,29.33,SSE,157,0.0,0.0,70,0.00,,,0.00,WUHU21623XXSP,2013-01-24 01:57:00,
2013-01-23 21:02:00,20.5,12.2,29.33,West,270,0.0,0.0,70,0.00,,,0.00,WUHU21623XXSP,2013-01-24 02:02:00,
2013-01-23 21:07:00,20.1,11.8,29.33,WSW,247,0.0,0.0,70,0.00,,,0.00,WUHU21623XXSP,2013-01-24 02:07:00,
2013-01-23 21:12:00,20.1,11.8,29.33,WSW,247,0.0,0.0,70,0.00,,,0.00,WUHU21623XXSP,2013-01-24 02:12:00,
2013-01-23 21:17:00,20.1,11.8,29.33,West,270,0.0,0.0,70,0.00,,,0.00,WUHU21623XXSP,2013-01-24 02:17:00,
2013-01-23 21:22:00,19.9,12.0,29.33,West,270,0.0,0.0,71,0.00,,,0.00,WUHU21623XXSP,2013-01-24 02:22:00,
2013-01-23 21:27:00,19.9,12.0,29.34,West,270,0.0,0.0,71,0.00,,,0.00,WUHU21623XXSP,2013-01-24 02:27:00,
2013-01-23 21:32:00,19.9,12.0,29.34,West,270,0.0,0.0,71,0.00,,,0.00,WUHU21623XXSP,2013-01-24 02:32:00,
2013-01-23 21:37:00,19.9,12.0,29.34,West,270,0.0,0.0,71,0.00,,,0.00,WUHU21623XXSP,2013-01-24 02:37:00,
2013-01-23 21:42:00,19.9,12.0,29.34,West,270,1.3,1.3,71,0.00,,,0.00,WUHU21623XXSP,2013-01-24 02:42:00,
2013-01-23 21:47:00,20.1,12.0,29.34,West,270,0.0,1.3,71,0.00,,,0.00,WUHU21623XXSP,2013-01-24 02:47:00,
2013-01-23 21:52:00,20.1,12.1,29.34,West,270,0.0,0.0,71,0.00,,,0.00,WUHU21623XXSP,2013-01-24 02:52:00,
2013-01-23 21:57:00,20.5,12.3,29.34,WNW,292,0.7,2.2,71,0.00,,,0.00,WUHU21623XXSP,2013-01-24 02:57:00,
2013-01-23 22:02:00,20.5,12.5,29.34,WNW,292,1.6,2.2,71,0.00,,,0.00,WUHU21623XXSP,2013-01-24 03:02:00,
2013-01-23 22:07:00,20.8,12.5,29.35,WNW,292,2.0,2.0,70,0.00,,,0.00,WUHU21623XXSP,2013-01-24 03:07:00,
2013-01-23 22:12:00,21.0,12.6,29.35,NW,315,5.8,5.8,70,0.00,,,0.00,WUHU21623XXSP,2013-01-24 03:12:00,
2013-01-23 22:17:00,21.0,12.7,29.35,NW,315,3.4,5.8,70,0.00,,,0.00,WUHU21623XXSP,2013-01-24 03:17:00,
2013-01-23 22:22:00,21.4,12.7,29.36,NW,315,5.1,9.4,69,0.00,,,0.00,WUHU21623XXSP,2013-01-24 03:22:00,
2013-01-23 22:27:00,21.4,12.7,29.36,WNW,292,2.5,9.4,69,0.00,,,0.00,WUHU21623XXSP,2013-01-24 03:27:00,
2013-01-23 22:32:00,21.4,12.4,29.36,NW,315,8.7,8.7,68,0.00,,,0.00,WUHU21623XXSP,2013-01-24 03:32:00,
2013-01-23 22:37:00,21.4,12.4,29.36,WNW,292,0.0,8.7,68,0.00,,,0.00,WUHU21623XXSP,2013-01-24 03:37:00,
2013-01-23 22:42:00,21.4,11.7,29.36,NNW,337,8.5,8.5,66,0.00,,,0.00,WUHU21623XXSP,2013-01-24 03:42:00,
2013-01-23 22:47:00,21.2,10.9,29.36,NNW,337,10.7,10.7,64,0.00,,,0.00,WUHU21623XXSP,2013-01-24 03:47:00,
2013-01-23 22:52:00,21.0,10.3,29.37,NW,315,9.6,15.7,63,0.00,,,0.00,WUHU21623XXSP,2013-01-24 03:52:00,
2013-01-23 22:57:00,20.8,10.2,29.37,NW,315,9.2,15.7,63,0.00,,,0.00,WUHU21623XXSP,2013-01-24 03:57:00,
2013-01-23 23:02:00,20.5,9.5,29.37,NNW,337,9.2,13.6,62,0.00,,,0.00,WUHU21623XXSP,2013-01-24 04:02:00,
2013-01-23 23:07:00,19.9,8.6,29.37,North,0,4.9,14.3,61,0.00,,,0.00,WUHU21623XXSP,2013-01-24 04:07:00,
2013-01-23 23:12:00,19.8,8.4,29.37,NNW,337,8.9,14.3,61,0.00,,,0.00,WUHU21623XXSP,2013-01-24 04:12:00,
2013-01-23 23:17:00,19.4,8.0,29.37,NNW,337,6.0,8.9,61,0.00,,,0.00,WUHU21623XXSP,2013-01-24 04:17:00,
2013-01-23 23:22:00,19.2,7.9,29.37,NW,315,4.0,8.9,61,0.00,,,0.00,WUHU21623XXSP,2013-01-24 04:22:00,
2013-01-23 23:27:00,19.2,7.9,29.37,NNW,337,3.8,9.2,61,0.00,,,0.00,WUHU21623XXSP,2013-01-24 04:27:00,
2013-01-23 23:32:00,19.0,7.7,29.38,NW,315,9.2,10.5,61,0.00,,,0.00,WUHU21623XXSP,2013-01-24 04:32:00,
2013-01-23 23:37:00,19.0,7.7,29.38,North,0,3.6,11.2,61,0.00,,,0.00,WUHU21623XXSP,2013-01-24 04:37:00,
2013-01-23 23:43:00,18.9,7.6,29.39,NW,315,6.5,6.9,61,0.00,,,0.00,WUHU21623XXSP,2013-01-24 04:43:00,
2013-01-23 23:48:00,18.7,7.7,29.39,NNW,337,9.2,12.3,62,0.00,,,0.00,WUHU21623XXSP,2013-01-24 04:48:00,
2013-01-23 23:53:00,18.7,7.7,29.39,North,0,8.1,12.3,62,0.00,,,0.00,WUHU21623XXSP,2013-01-24 04:53:00,
2013-01-23 23:58:00,18.5,7.6,29.39,NNW,337,6.9,8.1,62,0.00,,,0.00,WUHU21623XXSP,2013-01-24 04:58:00,